Terminal Aerodrome Forecast
Issued by NWS

Home | Current Version | Previous Version | Text Only | Print | Product List | Glossary On
Versions: 1 2 3 4 5 6 7 8 9 10 11 12 13 14
000
FTUS46 KSEW 311100
TAFBLI
TAF
KBLI 311133Z 3112/0112 00000KT 1/4SM FG VV001
     FM311900 01005KT 3SM BR BKN003 OVC250
     FM312100 03008KT P6SM BKN200=

USA.gov is the U.S. government's official web portal to all federal, state and local government web resources and services.